createdAt,value
2023-01-09T00:01:05.951Z,99612.69
2023-01-09T00:03:33.015Z,99612.94
2023-01-09T00:05:59.852Z,99609.13
2023-01-09T00:08:27.050Z,99617.34
2023-01-09T00:10:53.967Z,99611.47
2023-01-09T00:13:20.850Z,99610.34
2023-01-09T00:15:49.022Z,99607.94
2023-01-09T00:18:15.867Z,99595.34
2023-01-09T00:20:43.313Z,99599.31
2023-01-09T00:23:10.371Z,99598.97
2023-01-09T00:25:37.288Z,99591.72
2023-01-09T00:28:04.468Z,99598.88
2023-01-09T00:30:31.399Z,99591.94
2023-01-09T00:32:58.666Z,99592.41
2023-01-09T00:35:28.201Z,99580.41
2023-01-09T00:37:55.340Z,99576.88
2023-01-09T00:40:22.218Z,99576.31
2023-01-09T00:42:55.061Z,99578.97
2023-01-09T00:45:28.997Z,99566.94
2023-01-09T00:48:03.766Z,99564.53
2023-01-09T00:50:33.126Z,99557.28
2023-01-09T00:53:07.386Z,99559.13
2023-01-09T00:55:35.962Z,99567.09
2023-01-09T00:58:03.097Z,99555.91
2023-01-09T01:00:30.330Z,99553.50
2023-01-09T01:02:57.586Z,99543.09
2023-01-09T01:05:43.495Z,99546.47
2023-01-09T01:08:16.246Z,99544.06
2023-01-09T01:10:44.682Z,99541.09
2023-01-09T01:13:12.758Z,99541.31
2023-01-09T01:15:41.801Z,99546.06
2023-01-09T01:18:11.160Z,99546.53
2023-01-09T01:20:41.712Z,99537.44
2023-01-09T01:23:09.142Z,99533.63
2023-01-09T01:25:38.889Z,99529.84
2023-01-09T01:28:06.952Z,99534.81
2023-01-09T01:30:38.282Z,99531.34
2023-01-09T01:33:05.534Z,99523.88
2023-01-09T01:35:32.531Z,99522.50
2023-01-09T01:37:59.404Z,99525.63
2023-01-09T01:40:26.854Z,99523.22
2023-01-09T01:42:55.202Z,99520.31
2023-01-09T01:45:29.557Z,99525.31
2023-01-09T01:48:13.213Z,99511.44
2023-01-09T01:50:52.110Z,99526.25
2023-01-09T01:53:53.826Z,99523.50
2023-01-09T01:56:40.967Z,99505.88
2023-01-09T01:59:25.403Z,99500.22
2023-01-09T02:02:00.637Z,99499.41
2023-01-09T02:04:29.038Z,99485.81
2023-01-09T02:06:57.340Z,99501.19
2023-01-09T02:09:25.822Z,99494.16
2023-01-09T02:11:56.938Z,99493.34
2023-01-09T02:14:29.563Z,99490.38
2023-01-09T02:17:15.062Z,99493.50
2023-01-09T02:20:22.499Z,99495.25
2023-01-09T02:23:43.456Z,99497.56
2023-01-09T02:26:54.686Z,99493.19
2023-01-09T02:30:00.986Z,99493.44
2023-01-09T02:32:52.615Z,99500.81
2023-01-09T02:35:57.967Z,99487.56
2023-01-09T02:38:27.668Z,99499.22
2023-01-09T02:41:04.832Z,99490.13
2023-01-09T02:43:32.617Z,99491.81
2023-01-09T02:45:59.698Z,99491.81
2023-01-09T02:48:26.692Z,99494.25
2023-01-09T02:51:16.116Z,99497.22
2023-01-09T02:54:04.423Z,99499.88
2023-01-09T02:56:39.921Z,99499.88
2023-01-09T02:59:34.580Z,99493.53
2023-01-09T03:02:39.039Z,99482.13
2023-01-09T03:05:18.971Z,99477.84
2023-01-09T03:08:04.292Z,99481.31
2023-01-09T03:10:41.037Z,99474.16
2023-01-09T03:13:14.466Z,99463.78
2023-01-09T03:15:44.780Z,99471.84
2023-01-09T03:18:14.328Z,99473.22
2023-01-09T03:20:42.708Z,99469.28
2023-01-09T03:23:10.436Z,99452.88
2023-01-09T03:25:37.269Z,99447.66
2023-01-09T03:28:08.448Z,99448.56
2023-01-09T03:30:36.852Z,99454.28
2023-01-09T03:33:04.197Z,99449.06
2023-01-09T03:35:31.218Z,99443.84
2023-01-09T03:37:59.099Z,99445.38
2023-01-09T03:40:26.571Z,99439.91
2023-01-09T03:42:53.524Z,99437.34
2023-01-09T03:45:20.657Z,99421.22
2023-01-09T03:47:47.595Z,99426.97
2023-01-09T03:50:15.145Z,99413.75
2023-01-09T03:52:42.097Z,99418.91
2023-01-09T03:55:09.447Z,99416.81
2023-01-09T03:57:36.240Z,99419.88
2023-01-09T04:00:04.984Z,99416.47
2023-01-09T04:02:39.202Z,99426.38
2023-01-09T04:05:07.290Z,99417.34
2023-01-09T04:07:34.328Z,99414.75
2023-01-09T04:10:01.132Z,99408.47
2023-01-09T04:12:28.405Z,99413.88
2023-01-09T04:14:55.301Z,99411.28
2023-01-09T04:17:22.522Z,99412.97
2023-01-09T04:19:49.412Z,99409.81
2023-01-09T04:22:16.395Z,99403.75
2023-01-09T04:24:43.259Z,99411.25
2023-01-09T04:27:12.160Z,99406.72
2023-01-09T04:29:39.152Z,99405.97
2023-01-09T04:32:06.035Z,99402.53
2023-01-09T04:34:33.039Z,99398.91
2023-01-09T04:36:59.877Z,99388.56
2023-01-09T04:39:27.163Z,99389.94
2023-01-09T04:41:54.071Z,99384.34
2023-01-09T04:44:26.380Z,99385.72
2023-01-09T04:46:54.711Z,99379.41
2023-01-09T04:49:22.293Z,99373.28
2023-01-09T04:51:49.244Z,99373.56
2023-01-09T04:54:16.642Z,99384.78
2023-01-09T04:56:43.603Z,99377.34
2023-01-09T04:59:10.684Z,99378.94
2023-01-09T05:01:38.121Z,99373.63
2023-01-09T05:04:05.974Z,99372.56
2023-01-09T05:06:34.356Z,99375.84
2023-01-09T05:09:01.552Z,99380.91
2023-01-09T05:11:28.819Z,99375.09
2023-01-09T05:13:55.750Z,99373.22
2023-01-09T05:16:22.734Z,99374.59
2023-01-09T05:18:49.750Z,99374.34
2023-01-09T05:21:16.998Z,99370.38
2023-01-09T05:23:43.862Z,99374.63
2023-01-09T05:26:13.619Z,99359.47
2023-01-09T05:28:40.442Z,99357.56
2023-01-09T05:31:09.744Z,99359.72
2023-01-09T05:33:36.662Z,99360.28
2023-01-09T05:36:03.979Z,99366.09
2023-01-09T05:38:31.041Z,99365.28
2023-01-09T05:40:57.903Z,99358.38
2023-01-09T05:43:24.948Z,99363.94
2023-01-09T05:45:51.836Z,99357.22
2023-01-09T05:48:19.094Z,99361.78
2023-01-09T05:50:46.065Z,99355.09
2023-01-09T05:53:12.923Z,99347.13
2023-01-09T05:55:39.983Z,99346.56
2023-01-09T05:58:06.891Z,99348.66
2023-01-09T06:00:34.062Z,99340.44
2023-01-09T06:03:00.995Z,99345.75
2023-01-09T06:05:28.571Z,99341.75
2023-01-09T06:07:55.449Z,99337.72
2023-01-09T06:10:22.474Z,99343.84
2023-01-09T06:12:51.263Z,99346.50
2023-01-09T06:15:20.885Z,99343.81
2023-01-09T06:17:47.893Z,99337.41
2023-01-09T06:20:14.957Z,99340.09
2023-01-09T06:22:42.110Z,99332.34
2023-01-09T06:25:09.624Z,99330.50
2023-01-09T06:27:36.672Z,99335.00
2023-01-09T06:30:04.080Z,99334.22
2023-01-09T06:32:31.179Z,99331.28
2023-01-09T06:34:57.995Z,99325.16
2023-01-09T06:37:25.305Z,99331.03
2023-01-09T06:39:54.029Z,99333.16
2023-01-09T06:42:21.971Z,99324.13
2023-01-09T06:44:49.323Z,99319.84
2023-01-09T06:47:16.172Z,99310.00
2023-01-09T06:49:43.221Z,99316.13
2023-01-09T06:52:10.086Z,99306.78
2023-01-09T06:54:37.087Z,99300.91
2023-01-09T06:57:04.159Z,99311.38
2023-01-09T06:59:31.097Z,99314.28
2023-01-09T07:01:58.072Z,99308.44
2023-01-09T07:04:25.385Z,99304.97
2023-01-09T07:06:54.169Z,99303.94
2023-01-09T07:09:21.216Z,99310.59
2023-01-09T07:11:48.129Z,99301.56
2023-01-09T07:14:15.339Z,99290.13
2023-01-09T07:16:42.385Z,99299.19
2023-01-09T07:19:09.253Z,99293.06
2023-01-09T07:21:36.244Z,99297.09
2023-01-09T07:24:03.183Z,99297.09
2023-01-09T07:26:30.115Z,99296.84
2023-01-09T07:28:56.982Z,99299.00
2023-01-09T07:31:24.269Z,99301.66
2023-01-09T07:33:51.441Z,99297.13
2023-01-09T07:36:18.509Z,99299.28
2023-01-09T07:38:45.374Z,99306.22
2023-01-09T07:41:12.645Z,99298.78
2023-01-09T07:43:39.658Z,99297.72
2023-01-09T07:46:07.001Z,99297.22
2023-01-09T07:48:34.223Z,99298.03
2023-01-09T07:51:01.133Z,99306.56
2023-01-09T07:53:28.454Z,99312.94
2023-01-09T07:55:55.343Z,99314.28
2023-01-09T07:58:22.339Z,99312.94
2023-01-09T08:00:50.991Z,99318.56
2023-01-09T08:03:18.131Z,99325.50
2023-01-09T08:05:46.467Z,99332.44
2023-01-09T08:08:15.328Z,99334.59
2023-01-09T08:10:42.689Z,99331.41
2023-01-09T08:13:10.044Z,99321.56
2023-01-09T08:15:37.022Z,99329.84
2023-01-09T08:18:04.314Z,99331.75
2023-01-09T08:20:31.210Z,99334.41
2023-01-09T08:22:58.566Z,99335.78
2023-01-09T08:25:25.528Z,99330.94
2023-01-09T08:27:52.673Z,99334.47
2023-01-09T08:30:20.317Z,99327.00
2023-01-09T08:32:54.320Z,99329.97
2023-01-09T08:35:21.853Z,99327.56
2023-01-09T08:37:49.459Z,99333.22
2023-01-09T08:40:17.553Z,99331.84
2023-01-09T08:43:03.444Z,99332.97
2023-01-09T08:45:49.901Z,99340.69
2023-01-09T08:48:17.287Z,99338.28
2023-01-09T08:50:44.619Z,99335.38
2023-01-09T08:53:11.961Z,99341.25
2023-01-09T08:55:39.590Z,99352.44
2023-01-09T08:58:06.521Z,99356.97
2023-01-09T09:00:33.752Z,99364.22
2023-01-09T09:03:01.753Z,99360.50
2023-01-09T09:05:31.541Z,99361.28
2023-01-09T09:07:59.899Z,99363.44
2023-01-09T09:10:29.942Z,99360.53
2023-01-09T09:12:59.011Z,99353.06
2023-01-09T09:15:27.873Z,99360.31
2023-01-09T09:17:58.456Z,99364.84
2023-01-09T09:20:29.986Z,99353.13
2023-01-09T09:22:57.107Z,99345.41
2023-01-09T09:25:24.586Z,99347.03
2023-01-09T09:27:52.141Z,99368.88
2023-01-09T09:30:20.623Z,99375.03
2023-01-09T09:32:47.661Z,99366.25
2023-01-09T09:35:14.725Z,99374.00
2023-01-09T09:37:42.019Z,99382.25
2023-01-09T09:40:23.835Z,99369.72
2023-01-09T09:43:31.570Z,99373.75
2023-01-09T09:46:42.962Z,99376.41
2023-01-09T09:49:23.746Z,99385.22
2023-01-09T09:52:29.958Z,99397.25
2023-01-09T09:55:01.066Z,99388.78
2023-01-09T09:57:36.922Z,99379.22
2023-01-09T10:00:06.822Z,99391.53
2023-01-09T10:03:02.454Z,99389.16
2023-01-09T10:05:35.165Z,99386.25
2023-01-09T10:09:04.278Z,99384.66
2023-01-09T10:11:55.807Z,99378.81
2023-01-09T10:14:24.767Z,99380.16
2023-01-09T10:17:45.461Z,99391.97
2023-01-09T10:20:25.542Z,99383.97
2023-01-09T10:23:28.139Z,99386.94
2023-01-09T10:26:44.191Z,99393.91
2023-01-09T10:29:45.635Z,99409.66
2023-01-09T10:32:49.285Z,99410.72
2023-01-09T10:35:47.757Z,99399.00
2023-01-09T10:38:24.211Z,99399.03
2023-01-09T10:41:21.955Z,99400.09
2023-01-09T10:43:58.680Z,99397.97
2023-01-09T10:46:54.522Z,99400.66
2023-01-09T10:49:23.784Z,99398.53
2023-01-09T10:52:01.211Z,99412.72
2023-01-09T10:54:29.935Z,99418.06
2023-01-09T10:57:14.207Z,99418.88
2023-01-09T10:59:42.078Z,99413.84
2023-01-09T11:02:36.088Z,99432.84
2023-01-09T11:05:02.946Z,99445.94
2023-01-09T11:07:37.522Z,99423.84
2023-01-09T11:10:12.018Z,99437.22
2023-01-09T11:12:40.219Z,99426.81
2023-01-09T11:15:28.955Z,99427.63
2023-01-09T11:18:21.346Z,99437.00
2023-01-09T11:20:48.454Z,99431.63
2023-01-09T11:23:33.355Z,99437.25
2023-01-09T11:26:02.383Z,99435.38
2023-01-09T11:28:29.951Z,99447.69
2023-01-09T11:31:02.482Z,99450.63
2023-01-09T11:33:36.312Z,99443.41
2023-01-09T11:36:11.252Z,99448.75
2023-01-09T11:38:54.871Z,99467.22
2023-01-09T11:41:27.515Z,99474.16
2023-01-09T11:43:58.417Z,99463.19
2023-01-09T11:46:37.308Z,99458.13
2023-01-09T11:49:13.811Z,99462.38
2023-01-09T11:51:42.266Z,99469.88
2023-01-09T11:54:27.774Z,99469.31
2023-01-09T11:56:55.418Z,99462.91
2023-01-09T11:59:28.028Z,99477.38
2023-01-09T12:02:22.666Z,99477.66
2023-01-09T12:05:36.312Z,99483.31
2023-01-09T12:08:31.925Z,99486.00
2023-01-09T12:11:26.856Z,99494.81
2023-01-09T12:14:02.545Z,99498.84
2023-01-09T12:17:21.212Z,99496.75
2023-01-09T12:20:19.322Z,99507.47
2023-01-09T12:22:58.334Z,99509.88
2023-01-09T12:26:32.276Z,99506.91
2023-01-09T12:29:41.967Z,99502.56
2023-01-09T12:32:27.521Z,99504.97
2023-01-09T12:35:21.330Z,99500.13
2023-01-09T12:38:12.753Z,99497.63
2023-01-09T12:41:09.699Z,99510.56
2023-01-09T12:44:04.333Z,99495.53
2023-01-09T12:46:50.751Z,99490.66
2023-01-09T12:49:29.478Z,99504.63
2023-01-09T12:52:09.227Z,99497.16
2023-01-09T12:54:55.312Z,99497.19
2023-01-09T12:57:31.934Z,99486.53
2023-01-09T13:00:15.357Z,99492.34
2023-01-09T13:03:11.956Z,99507.25
2023-01-09T13:05:50.234Z,99504.47
2023-01-09T13:08:32.152Z,99499.91
2023-01-09T13:11:22.987Z,99511.75
2023-01-09T13:13:56.139Z,99513.84
2023-01-09T13:16:45.219Z,99516.69
2023-01-09T13:19:21.413Z,99515.88
2023-01-09T13:21:49.016Z,99521.56
2023-01-09T13:25:02.600Z,99513.25
2023-01-09T13:27:36.340Z,99518.22
2023-01-09T13:30:22.703Z,99522.13
2023-01-09T13:33:09.923Z,99506.97
2023-01-09T13:35:52.814Z,99511.47
2023-01-09T13:38:28.888Z,99500.25
2023-01-09T13:41:32.534Z,99506.91
2023-01-09T13:44:01.951Z,99499.91
2023-01-09T13:46:48.820Z,99510.97
2023-01-09T13:49:41.253Z,99519.41
2023-01-09T13:52:29.355Z,99528.66
2023-01-09T13:54:56.240Z,99532.53
2023-01-09T13:57:38.448Z,99528.72
2023-01-09T14:00:17.069Z,99545.84
2023-01-09T14:02:46.448Z,99561.81
2023-01-09T14:05:36.898Z,99559.41
2023-01-09T14:08:13.649Z,99569.53
2023-01-09T14:10:50.693Z,99575.34
2023-01-09T14:13:31.248Z,99571.50
2023-01-09T14:16:23.543Z,99583.69
2023-01-09T14:19:14.621Z,99587.00
2023-01-09T14:22:01.147Z,99583.09
2023-01-09T14:24:52.535Z,99601.72
2023-01-09T14:27:54.258Z,99595.84
2023-01-09T14:30:27.204Z,99601.53
2023-01-09T14:33:19.893Z,99617.00
2023-01-09T14:36:18.679Z,99615.00
2023-01-09T14:38:53.668Z,99620.22
2023-01-09T14:41:54.800Z,99627.78
2023-01-09T14:44:47.498Z,99641.28
2023-01-09T14:47:43.256Z,99638.34
2023-01-09T14:50:29.912Z,99641.34
2023-01-09T14:53:04.039Z,99647.25
2023-01-09T14:55:52.481Z,99638.16
2023-01-09T14:58:35.184Z,99647.78
2023-01-09T15:01:32.479Z,99648.28
2023-01-09T15:04:04.550Z,99647.19
2023-01-09T15:06:41.972Z,99652.56
2023-01-09T15:09:28.331Z,99661.94
2023-01-09T15:12:02.080Z,99660.06
2023-01-09T15:14:32.822Z,99653.88
2023-01-09T15:17:00.684Z,99656.03
2023-01-09T15:19:28.928Z,99663.25
2023-01-09T15:22:05.257Z,99669.13
2023-01-09T15:24:35.318Z,99661.09
2023-01-09T15:27:15.512Z,99673.13
2023-01-09T15:29:42.536Z,99674.47
2023-01-09T15:32:28.574Z,99668.56
2023-01-09T15:34:57.726Z,99689.16
2023-01-09T15:37:38.601Z,99686.72
2023-01-09T15:40:08.304Z,99693.66
2023-01-09T15:42:58.127Z,99687.75
2023-01-09T15:45:32.463Z,99695.19
2023-01-09T15:48:19.557Z,99692.22
2023-01-09T15:50:48.947Z,99690.59
2023-01-09T15:53:22.641Z,99704.22
2023-01-09T15:56:20.232Z,99711.97
2023-01-09T15:58:49.712Z,99722.94
2023-01-09T16:01:32.707Z,99719.16
2023-01-09T16:04:12.472Z,99713.28
2023-01-09T16:06:50.862Z,99716.47
2023-01-09T16:09:26.242Z,99723.94
2023-01-09T16:11:56.953Z,99718.06
2023-01-09T16:14:41.994Z,99718.06
2023-01-09T16:17:16.802Z,99720.41
2023-01-09T16:20:15.850Z,99725.75
2023-01-09T16:22:55.140Z,99728.44
2023-01-09T16:25:48.929Z,99724.41
2023-01-09T16:28:21.459Z,99724.91
2023-01-09T16:30:57.289Z,99723.56
2023-01-09T16:33:30.057Z,99730.78
2023-01-09T16:36:00.315Z,99711.50
2023-01-09T16:38:27.853Z,99726.47
2023-01-09T16:41:20.899Z,99729.09
2023-01-09T16:43:48.660Z,99740.03
2023-01-09T16:46:19.396Z,99752.28
2023-01-09T16:48:47.150Z,99755.72
2023-01-09T16:51:21.843Z,99750.59
2023-01-09T16:53:49.947Z,99749.75
2023-01-09T16:56:23.893Z,99751.56
2023-01-09T16:58:53.288Z,99747.22
2023-01-09T17:01:21.911Z,99750.41
2023-01-09T17:03:49.611Z,99759.75
2023-01-09T17:06:29.920Z,99756.22
2023-01-09T17:08:57.932Z,99752.69
2023-01-09T17:11:31.533Z,99756.94
2023-01-09T17:14:02.573Z,99756.38
2023-01-09T17:16:30.274Z,99745.66
2023-01-09T17:18:57.213Z,99760.63
2023-01-09T17:21:30.748Z,99759.00
2023-01-09T17:24:18.102Z,99757.38
2023-01-09T17:27:07.967Z,99758.19
2023-01-09T17:29:35.973Z,99765.91
2023-01-09T17:32:03.289Z,99759.75
2023-01-09T17:34:30.579Z,99766.97
2023-01-09T17:36:58.066Z,99763.19
2023-01-09T17:39:26.473Z,99763.19
2023-01-09T17:41:53.584Z,99767.72
2023-01-09T17:44:20.482Z,99775.97
2023-01-09T17:46:47.610Z,99775.97
2023-01-09T17:49:19.399Z,99771.66
2023-01-09T17:51:46.423Z,99764.09
2023-01-09T17:54:14.334Z,99773.97
2023-01-09T17:56:49.279Z,99768.56
2023-01-09T17:59:17.083Z,99782.91
2023-01-09T18:01:45.210Z,99778.31
2023-01-09T18:04:12.478Z,99772.69
2023-01-09T18:06:39.393Z,99780.94
2023-01-09T18:09:07.571Z,99789.41
2023-01-09T18:11:34.952Z,99801.72
2023-01-09T18:14:02.466Z,99795.81
2023-01-09T18:16:29.568Z,99798.97
2023-01-09T18:18:58.297Z,99799.53
2023-01-09T18:21:27.766Z,99805.66
2023-01-09T18:23:56.542Z,99818.75
2023-01-09T18:26:24.319Z,99808.91
2023-01-09T18:29:01.069Z,99809.22
2023-01-09T18:31:30.343Z,99805.19
2023-01-09T18:34:02.106Z,99815.63
2023-01-09T18:36:29.852Z,99819.59
2023-01-09T18:38:59.808Z,99806.25
2023-01-09T18:41:27.867Z,99822.25
2023-01-09T18:43:58.025Z,99827.59
2023-01-09T18:46:30.732Z,99826.75
2023-01-09T18:49:05.177Z,99843.81
2023-01-09T18:51:36.255Z,99853.94
2023-01-09T18:54:03.867Z,99851.50
2023-01-09T18:56:30.779Z,99855.25
2023-01-09T18:58:58.716Z,99843.94
2023-01-09T19:01:27.906Z,99861.25
2023-01-09T19:03:56.762Z,99865.53
2023-01-09T19:06:23.756Z,99862.78
2023-01-09T19:08:50.845Z,99866.47
2023-01-09T19:11:18.470Z,99873.34
2023-01-09T19:13:45.736Z,99886.13
2023-01-09T19:16:13.426Z,99884.28
2023-01-09T19:18:42.100Z,99879.19
2023-01-09T19:21:19.577Z,99874.34
2023-01-09T19:23:48.383Z,99887.19
2023-01-09T19:26:28.807Z,99887.66
2023-01-09T19:28:57.462Z,99889.28
2023-01-09T19:31:28.608Z,99890.34
2023-01-09T19:33:57.902Z,99890.34
2023-01-09T19:36:25.292Z,99890.09
2023-01-09T19:39:00.166Z,99882.41
2023-01-09T19:41:27.764Z,99879.75
2023-01-09T19:43:54.907Z,99894.69
2023-01-09T19:46:24.812Z,99894.69
2023-01-09T19:48:53.523Z,99902.56
2023-01-09T19:51:22.264Z,99910.56
2023-01-09T19:53:55.361Z,99909.50
2023-01-09T19:56:24.489Z,99902.88
2023-01-09T19:59:00.976Z,99902.63
2023-01-09T20:01:41.666Z,99899.72
2023-01-09T20:04:16.003Z,99901.81
2023-01-09T20:06:50.069Z,99907.16
2023-01-09T20:09:22.021Z,99915.72
2023-01-09T20:11:49.357Z,99910.31
2023-01-09T20:14:19.260Z,99915.09
2023-01-09T20:16:49.130Z,99918.81
2023-01-09T20:19:16.674Z,99921.91
2023-01-09T20:21:43.901Z,99931.31
2023-01-09T20:24:16.767Z,99935.81
2023-01-09T20:26:46.251Z,99927.50
2023-01-09T20:29:13.896Z,99939.53
2023-01-09T20:31:40.923Z,99935.25
2023-01-09T20:34:08.163Z,99937.13
2023-01-09T20:36:35.058Z,99946.50
2023-01-09T20:39:05.331Z,99957.28
2023-01-09T20:41:32.572Z,99946.59
2023-01-09T20:44:12.777Z,99951.75
2023-01-09T20:46:44.759Z,99946.91
2023-01-09T20:49:13.729Z,99965.09
2023-01-09T20:51:44.745Z,99975.03
2023-01-09T20:54:12.205Z,99964.38
2023-01-09T20:56:39.606Z,99969.22
2023-01-09T20:59:11.510Z,99972.00
2023-01-09T21:01:40.538Z,99965.84
2023-01-09T21:04:08.991Z,99969.06
2023-01-09T21:06:36.286Z,99974.16
2023-01-09T21:09:05.216Z,99985.97
2023-01-09T21:11:34.425Z,99976.09
2023-01-09T21:14:01.559Z,99979.25
2023-01-09T21:16:28.690Z,99980.13
2023-01-09T21:18:55.819Z,99987.66
2023-01-09T21:21:26.366Z,99990.06
2023-01-09T21:23:58.554Z,100015.47
2023-01-09T21:26:30.408Z,100023.22
2023-01-09T21:28:59.882Z,100021.94
2023-01-09T21:31:35.629Z,100030.50
2023-01-09T21:34:07.956Z,100035.34
2023-01-09T21:36:36.285Z,100020.38
2023-01-09T21:39:07.907Z,100037.28
2023-01-09T21:41:54.147Z,100038.09
2023-01-09T21:44:40.108Z,100048.03
2023-01-09T21:47:06.982Z,100045.84
2023-01-09T21:49:36.153Z,100050.72
2023-01-09T21:52:04.517Z,100054.75
2023-01-09T21:54:32.761Z,100054.81
2023-01-09T21:57:00.047Z,100069.47
2023-01-09T21:59:27.884Z,100070.03
2023-01-09T22:01:55.367Z,100071.91
2023-01-09T22:04:26.138Z,100078.84
2023-01-09T22:06:53.086Z,100095.44
2023-01-09T22:09:20.616Z,100092.78
2023-01-09T22:11:47.571Z,100098.34
2023-01-09T22:14:18.376Z,100097.78
2023-01-09T22:16:46.493Z,100098.91
2023-01-09T22:19:17.402Z,100112.50
2023-01-09T22:21:44.930Z,100116.72
2023-01-09T22:24:18.023Z,100121.56
2023-01-09T22:26:45.559Z,100126.59
2023-01-09T22:29:12.780Z,100142.38
2023-01-09T22:31:40.620Z,100135.66
2023-01-09T22:34:07.615Z,100135.09
2023-01-09T22:36:35.070Z,100134.53
2023-01-09T22:39:02.358Z,100140.19
2023-01-09T22:41:30.465Z,100147.38
2023-01-09T22:43:58.739Z,100145.53
2023-01-09T22:46:26.185Z,100160.97
2023-01-09T22:48:53.214Z,100165.44
2023-01-09T22:51:21.455Z,100157.91
2023-01-09T22:53:50.530Z,100159.19
2023-01-09T22:56:20.557Z,100161.94
2023-01-09T22:58:55.756Z,100164.88
2023-01-09T23:01:23.150Z,100168.00
2023-01-09T23:03:50.281Z,100178.94
2023-01-09T23:06:22.793Z,100178.94
2023-01-09T23:08:51.649Z,100179.97
2023-01-09T23:11:47.826Z,100182.19
2023-01-09T23:14:14.738Z,100194.16
2023-01-09T23:16:41.959Z,100204.81
2023-01-09T23:19:10.180Z,100205.72
2023-01-09T23:21:37.537Z,100217.94
2023-01-09T23:24:06.900Z,100209.91
2023-01-09T23:26:35.440Z,100213.41
2023-01-09T23:29:02.503Z,100220.59
2023-01-09T23:31:29.579Z,100216.22
2023-01-09T23:33:56.513Z,100224.22
2023-01-09T23:36:23.512Z,100222.84
2023-01-09T23:38:50.768Z,100226.66
2023-01-09T23:41:17.932Z,100217.84
2023-01-09T23:43:45.568Z,100219.94
2023-01-09T23:46:12.715Z,100231.66
2023-01-09T23:48:39.653Z,100234.81
2023-01-09T23:51:06.921Z,100234.91
2023-01-09T23:53:34.368Z,100238.06
2023-01-09T23:56:02.893Z,100248.81
2023-01-09T23:58:29.941Z,100253.34
